createdAt,value
2019-03-25T00:00:10.085Z,4.93
2019-03-25T00:02:40.977Z,4.73
2019-03-25T00:05:10.317Z,5.13
2019-03-25T00:07:39.577Z,4.90
2019-03-25T00:10:08.994Z,4.90
2019-03-25T00:12:38.282Z,4.50
2019-03-25T00:15:07.698Z,4.93
2019-03-25T00:17:36.988Z,5.30
2019-03-25T00:20:06.772Z,4.77
2019-03-25T00:22:36.047Z,4.50
2019-03-25T00:25:06.385Z,4.60
2019-03-25T00:27:35.652Z,5.77
2019-03-25T00:30:05.952Z,5.30
2019-03-25T00:32:35.236Z,5.00
2019-03-25T00:35:05.940Z,4.50
2019-03-25T00:37:35.282Z,5.27
2019-03-25T00:40:05.480Z,4.80
2019-03-25T00:42:34.821Z,4.37
2019-03-25T00:45:05.532Z,4.67
2019-03-25T00:47:34.820Z,5.20
2019-03-25T00:50:05.933Z,4.53
2019-03-25T00:52:35.274Z,4.63
2019-03-25T00:55:05.977Z,4.80
2019-03-25T00:57:36.232Z,4.87
2019-03-25T01:00:08.031Z,5.30
2019-03-25T01:02:37.308Z,4.80
2019-03-25T01:05:07.014Z,4.20
2019-03-25T01:07:36.284Z,5.20
2019-03-25T01:10:07.293Z,5.97
2019-03-25T01:12:36.577Z,5.10
2019-03-25T01:15:07.745Z,5.30
2019-03-25T01:17:37.012Z,5.03
2019-03-25T01:20:06.984Z,5.87
2019-03-25T01:22:36.307Z,5.57
2019-03-25T01:25:08.797Z,4.73
2019-03-25T01:27:38.069Z,4.97
2019-03-25T01:30:09.186Z,4.97
2019-03-25T01:32:38.520Z,5.50
2019-03-25T01:35:07.865Z,4.40
2019-03-25T01:37:37.180Z,4.10
2019-03-25T01:40:07.596Z,4.30
2019-03-25T01:42:36.872Z,5.37
2019-03-25T01:45:06.872Z,5.70
2019-03-25T01:47:36.190Z,4.50
2019-03-25T01:50:07.196Z,4.83
2019-03-25T01:52:36.464Z,4.60
2019-03-25T01:55:13.262Z,4.23
2019-03-25T01:57:37.840Z,4.43
2019-03-25T02:00:08.359Z,5.53
2019-03-25T02:02:37.624Z,5.20
2019-03-25T02:05:07.431Z,5.13
2019-03-25T02:07:37.007Z,6.87
2019-03-25T02:10:07.819Z,4.77
2019-03-25T02:12:37.092Z,5.13
2019-03-25T02:15:06.804Z,5.23
2019-03-25T02:17:36.077Z,4.90
2019-03-25T02:20:06.708Z,5.03
2019-03-25T02:22:36.035Z,6.60
2019-03-25T02:25:06.228Z,6.13
2019-03-25T02:27:36.461Z,5.97
2019-03-25T02:30:07.496Z,6.17
2019-03-25T02:32:36.745Z,5.80
2019-03-25T02:35:06.896Z,5.60
2019-03-25T02:37:36.163Z,5.40
2019-03-25T02:40:06.685Z,5.80
2019-03-25T02:42:35.949Z,5.57
2019-03-25T02:45:07.169Z,5.30
2019-03-25T02:47:36.445Z,5.67
2019-03-25T02:50:06.184Z,5.73
2019-03-25T02:52:35.476Z,5.00
2019-03-25T02:55:07.286Z,5.23
2019-03-25T02:57:37.532Z,4.93
2019-03-25T03:00:09.020Z,5.47
2019-03-25T03:02:38.285Z,5.00
2019-03-25T03:05:08.022Z,4.57
2019-03-25T03:07:37.284Z,4.97
2019-03-25T03:10:07.608Z,4.77
2019-03-25T03:12:36.865Z,6.17
2019-03-25T03:15:07.093Z,5.90
2019-03-25T03:17:36.354Z,5.03
2019-03-25T03:20:07.199Z,5.67
2019-03-25T03:22:36.461Z,5.23
2019-03-25T03:25:05.810Z,4.70
2019-03-25T03:27:35.060Z,5.10
2019-03-25T03:30:06.344Z,5.73
2019-03-25T03:32:35.610Z,5.60
2019-03-25T03:35:06.751Z,5.23
2019-03-25T03:37:36.082Z,4.53
2019-03-25T03:40:06.977Z,5.20
2019-03-25T03:42:36.309Z,5.33
2019-03-25T03:45:06.699Z,4.93
2019-03-25T03:47:35.960Z,5.23
2019-03-25T03:50:07.278Z,4.77
2019-03-25T03:52:36.611Z,4.87
2019-03-25T03:55:06.669Z,5.40
2019-03-25T03:57:36.289Z,5.97
2019-03-25T04:00:07.556Z,5.80
2019-03-25T04:02:36.856Z,5.70
2019-03-25T04:05:06.200Z,5.60
2019-03-25T04:07:35.497Z,6.77
2019-03-25T04:10:07.048Z,5.20
2019-03-25T04:12:36.313Z,6.30
2019-03-25T04:15:06.723Z,5.53
2019-03-25T04:17:36.019Z,5.90
2019-03-25T04:20:07.387Z,6.67
2019-03-25T04:22:36.670Z,6.00
2019-03-25T04:25:06.581Z,5.87
2019-03-25T04:27:35.849Z,6.30
2019-03-25T04:30:05.660Z,6.57
2019-03-25T04:32:34.926Z,6.20
2019-03-25T04:35:04.825Z,5.73
2019-03-25T04:37:34.112Z,6.70
2019-03-25T04:40:05.675Z,5.83
2019-03-25T04:42:34.946Z,6.40
2019-03-25T04:45:05.555Z,6.27
2019-03-25T04:47:34.820Z,5.73
2019-03-25T04:50:05.661Z,4.33
2019-03-25T04:52:34.937Z,3.90
2019-03-25T04:55:05.461Z,4.27
2019-03-25T04:57:35.871Z,3.80
2019-03-25T05:00:05.981Z,3.17
2019-03-25T05:02:35.251Z,3.50
2019-03-25T05:05:06.161Z,3.03
2019-03-25T05:07:35.473Z,3.10
2019-03-25T05:10:06.752Z,3.47
2019-03-25T05:12:37.087Z,4.30
2019-03-25T05:15:06.689Z,3.87
2019-03-25T05:17:36.037Z,4.27
2019-03-25T05:20:06.242Z,4.13
2019-03-25T05:22:35.515Z,4.17
2019-03-25T05:25:06.221Z,3.97
2019-03-25T05:27:35.536Z,3.83
2019-03-25T05:30:07.281Z,4.20
2019-03-25T05:32:36.559Z,4.63
2019-03-25T05:35:07.169Z,4.27
2019-03-25T05:37:36.437Z,3.57
2019-03-25T05:40:05.950Z,2.83
2019-03-25T05:42:35.225Z,3.43
2019-03-25T05:45:06.336Z,3.43
2019-03-25T05:47:35.605Z,3.40
2019-03-25T05:50:08.858Z,2.70
2019-03-25T05:52:37.581Z,2.90
2019-03-25T05:55:07.776Z,3.17
2019-03-25T05:57:37.076Z,2.80
2019-03-25T06:00:06.781Z,3.60
2019-03-25T06:02:36.066Z,3.50
2019-03-25T06:05:06.469Z,2.90
2019-03-25T06:07:35.968Z,3.37
2019-03-25T06:10:07.044Z,3.30
2019-03-25T06:12:36.336Z,3.53
2019-03-25T06:15:06.746Z,3.63
2019-03-25T06:17:36.272Z,3.30
2019-03-25T06:20:06.688Z,4.70
2019-03-25T06:22:35.952Z,4.10
2019-03-25T06:25:07.258Z,3.33
2019-03-25T06:27:36.511Z,3.73
2019-03-25T06:30:08.897Z,3.77
2019-03-25T06:32:38.478Z,4.07
2019-03-25T06:35:09.240Z,3.83
2019-03-25T06:37:38.701Z,3.23
2019-03-25T06:40:09.480Z,3.97
2019-03-25T06:42:38.749Z,3.27
2019-03-25T06:45:09.665Z,3.83
2019-03-25T06:47:38.932Z,3.40
2019-03-25T06:50:08.841Z,3.53
2019-03-25T06:52:38.105Z,3.03
2019-03-25T06:55:08.421Z,3.53
2019-03-25T06:57:38.811Z,3.23
2019-03-25T07:00:09.525Z,4.50
2019-03-25T07:02:38.868Z,4.53
2019-03-25T07:05:08.576Z,3.13
2019-03-25T07:07:37.838Z,3.33
2019-03-25T07:10:07.456Z,3.47
2019-03-25T07:12:37.564Z,3.97
2019-03-25T07:15:08.949Z,4.23
2019-03-25T07:17:38.693Z,4.17
2019-03-25T07:20:08.416Z,4.30
2019-03-25T07:22:37.682Z,4.20
2019-03-25T07:25:08.108Z,4.83
2019-03-25T07:27:37.539Z,3.93
2019-03-25T07:30:11.303Z,4.07
2019-03-25T07:32:40.162Z,3.93
2019-03-25T07:35:09.677Z,4.47
2019-03-25T07:37:38.936Z,3.83
2019-03-25T07:40:08.952Z,3.63
2019-03-25T07:42:38.215Z,4.37
2019-03-25T07:45:09.187Z,4.57
2019-03-25T07:47:38.453Z,4.13
2019-03-25T07:50:08.367Z,4.40
2019-03-25T07:52:37.634Z,3.80
2019-03-25T07:55:07.175Z,4.10
2019-03-25T07:57:47.304Z,3.43
2019-03-25T08:00:15.082Z,3.83
2019-03-25T08:02:44.324Z,4.10
2019-03-25T08:05:13.674Z,3.33
2019-03-25T08:07:42.942Z,3.87
2019-03-25T08:10:12.448Z,4.40
2019-03-25T08:12:41.720Z,3.70
2019-03-25T08:15:11.345Z,3.13
2019-03-25T08:17:40.586Z,3.87
2019-03-25T08:20:09.992Z,4.07
2019-03-25T08:22:39.264Z,4.30
2019-03-25T08:25:08.776Z,3.87
2019-03-25T08:27:38.045Z,3.90
2019-03-25T08:30:08.465Z,3.40
2019-03-25T08:32:37.737Z,3.80
2019-03-25T08:35:07.380Z,4.27
2019-03-25T08:37:36.653Z,3.27
2019-03-25T08:40:07.529Z,3.87
2019-03-25T08:42:36.795Z,4.17
2019-03-25T08:45:07.196Z,4.50
2019-03-25T08:47:36.480Z,3.43
2019-03-25T08:50:08.548Z,4.03
2019-03-25T08:52:37.834Z,3.83
2019-03-25T08:55:07.343Z,3.60
2019-03-25T08:57:36.623Z,2.97
2019-03-25T09:00:08.423Z,3.70
2019-03-25T09:02:37.688Z,3.57
2019-03-25T09:05:08.373Z,3.00
2019-03-25T09:07:37.672Z,4.27
2019-03-25T09:10:10.374Z,3.03
2019-03-25T09:12:39.731Z,3.17
2019-03-25T09:15:10.737Z,2.87
2019-03-25T09:17:40.010Z,3.00
2019-03-25T09:20:11.340Z,2.90
2019-03-25T09:22:40.612Z,2.63
2019-03-25T09:25:11.296Z,2.17
2019-03-25T09:27:40.572Z,2.60
2019-03-25T09:30:10.653Z,2.00
2019-03-25T09:32:39.928Z,1.53
2019-03-25T09:35:10.503Z,1.70
2019-03-25T09:37:39.768Z,2.30
2019-03-25T09:40:10.176Z,1.43
2019-03-25T09:42:39.448Z,1.77
2019-03-25T09:45:11.320Z,2.77
2019-03-25T09:47:40.596Z,2.10
2019-03-25T09:50:10.569Z,1.87
2019-03-25T09:52:39.844Z,1.90
2019-03-25T09:55:09.281Z,2.03
2019-03-25T09:57:39.537Z,2.50
2019-03-25T10:00:11.469Z,1.70
2019-03-25T10:02:40.761Z,2.20
2019-03-25T10:05:10.043Z,2.20
2019-03-25T10:07:39.313Z,2.23
2019-03-25T10:10:09.004Z,1.70
2019-03-25T10:12:38.332Z,2.47
2019-03-25T10:15:09.241Z,2.00
2019-03-25T10:17:38.506Z,2.43
2019-03-25T10:20:07.909Z,2.13
2019-03-25T10:22:37.181Z,2.47
2019-03-25T10:25:07.785Z,1.70
2019-03-25T10:27:37.160Z,3.00
2019-03-25T10:30:11.944Z,1.97
2019-03-25T10:32:41.205Z,2.80
2019-03-25T10:35:11.018Z,2.07
2019-03-25T10:37:40.282Z,2.03
2019-03-25T10:40:10.090Z,2.27
2019-03-25T10:42:39.359Z,1.50
2019-03-25T10:45:09.832Z,1.40
2019-03-25T10:47:39.089Z,1.33
2019-03-25T10:50:08.606Z,1.30
2019-03-25T10:52:37.949Z,1.00
2019-03-25T10:55:07.940Z,1.77
2019-03-25T10:57:37.413Z,0.90
2019-03-25T11:00:11.438Z,1.20
2019-03-25T11:02:40.801Z,1.20
2019-03-25T11:05:11.869Z,1.57
2019-03-25T11:10:10.964Z,1.50
2019-03-25T11:12:40.293Z,1.40
2019-03-25T11:15:11.712Z,1.60
2019-03-25T11:17:40.976Z,1.63
2019-03-25T11:20:11.196Z,2.00
2019-03-25T11:22:40.461Z,1.90
2019-03-25T11:25:10.579Z,2.10
2019-03-25T11:27:39.849Z,1.80
2019-03-25T11:30:11.728Z,1.60
2019-03-25T11:32:40.997Z,1.90
2019-03-25T11:35:10.916Z,1.57
2019-03-25T11:37:40.177Z,2.30
2019-03-25T11:40:10.184Z,2.20
2019-03-25T11:42:39.459Z,1.60
2019-03-25T11:45:10.075Z,1.90
2019-03-25T11:47:39.412Z,1.50
2019-03-25T11:50:09.031Z,2.03
2019-03-25T11:52:38.292Z,1.80
2019-03-25T11:55:08.004Z,0.97
2019-03-25T11:57:37.268Z,1.43
2019-03-25T12:00:08.058Z,1.57
2019-03-25T12:02:37.324Z,1.50
2019-03-25T12:05:07.520Z,1.03
2019-03-25T12:07:36.792Z,1.40
2019-03-25T12:10:06.904Z,1.40
2019-03-25T12:12:36.185Z,1.50
2019-03-25T12:15:06.993Z,1.60
2019-03-25T12:17:36.264Z,1.20
2019-03-25T12:20:06.774Z,1.63
2019-03-25T12:22:36.045Z,2.23
2019-03-25T12:25:06.745Z,2.40
2019-03-25T12:27:36.023Z,1.90
2019-03-25T12:30:08.138Z,2.00
2019-03-25T12:32:37.409Z,2.13
2019-03-25T12:35:08.121Z,1.83
2019-03-25T12:37:37.393Z,1.87
2019-03-25T12:40:08.026Z,2.10
2019-03-25T12:42:37.552Z,1.67
2019-03-25T12:45:10.996Z,1.70
2019-03-25T12:47:40.272Z,2.10
2019-03-25T12:50:09.984Z,1.70
2019-03-25T12:52:39.269Z,3.10
2019-03-25T12:55:08.708Z,1.70
2019-03-25T12:57:37.988Z,1.70
2019-03-25T13:00:07.892Z,2.03
2019-03-25T13:02:37.174Z,1.07
2019-03-25T13:05:06.973Z,0.67
2019-03-25T13:07:36.237Z,0.73
2019-03-25T13:10:06.541Z,0.80
2019-03-25T13:12:35.824Z,1.03
2019-03-25T13:15:07.109Z,1.00
2019-03-25T13:17:36.374Z,1.23
2019-03-25T13:20:06.520Z,1.30
2019-03-25T13:22:35.802Z,1.30
2019-03-25T13:25:06.508Z,1.43
2019-03-25T13:27:36.762Z,1.30
2019-03-25T13:30:09.107Z,1.50
2019-03-25T13:32:38.379Z,1.53
2019-03-25T13:35:07.785Z,1.50
2019-03-25T13:37:37.060Z,1.47
2019-03-25T13:40:07.068Z,1.77
2019-03-25T13:42:36.343Z,2.10
2019-03-25T13:45:07.447Z,2.30
2019-03-25T13:47:36.715Z,2.30
2019-03-25T13:50:07.821Z,1.83
2019-03-25T13:52:37.096Z,2.50
2019-03-25T13:55:07.308Z,4.77
2019-03-25T13:57:36.571Z,2.00
2019-03-25T14:00:07.680Z,1.77
2019-03-25T14:02:37.926Z,2.10
2019-03-25T14:05:07.932Z,1.50
2019-03-25T14:07:37.196Z,1.80
2019-03-25T14:10:08.016Z,1.93
2019-03-25T14:12:37.283Z,2.27
2019-03-25T14:15:08.695Z,2.53
2019-03-25T14:17:37.973Z,2.53
2019-03-25T14:20:08.289Z,2.40
2019-03-25T14:22:37.544Z,1.57
2019-03-25T14:25:07.467Z,2.03
2019-03-25T14:27:36.729Z,1.40
2019-03-25T14:30:14.614Z,2.43
2019-03-25T14:32:39.017Z,2.00
2019-03-25T14:35:08.447Z,1.70
2019-03-25T14:37:37.718Z,2.10
2019-03-25T14:40:07.837Z,3.27
2019-03-25T14:42:37.107Z,1.70
2019-03-25T14:45:08.117Z,1.97
2019-03-25T14:47:37.468Z,2.50
2019-03-25T14:50:07.877Z,2.80
2019-03-25T14:52:37.156Z,2.77
2019-03-25T14:55:06.557Z,2.30
2019-03-25T14:57:35.820Z,3.63
2019-03-25T15:00:08.149Z,2.60
2019-03-25T15:02:37.415Z,2.17
2019-03-25T15:05:07.628Z,2.37
2019-03-25T15:07:36.900Z,3.10
2019-03-25T15:10:07.416Z,2.97
2019-03-25T15:12:36.683Z,2.60
2019-03-25T15:15:07.509Z,1.90
2019-03-25T15:17:37.033Z,2.93
2019-03-25T15:20:10.152Z,2.33
2019-03-25T15:22:39.492Z,2.10
2019-03-25T15:25:09.509Z,3.33
2019-03-25T15:27:38.777Z,2.43
2019-03-25T15:30:09.570Z,2.40
2019-03-25T15:32:38.839Z,2.33
2019-03-25T15:35:09.173Z,1.87
2019-03-25T15:37:38.441Z,2.33
2019-03-25T15:40:10.075Z,2.17
2019-03-25T15:42:39.374Z,2.37
2019-03-25T15:45:09.292Z,2.60
2019-03-25T15:47:39.308Z,2.60
2019-03-25T15:50:10.685Z,3.00
2019-03-25T15:52:41.421Z,2.63
2019-03-25T15:55:11.331Z,2.70
2019-03-25T15:57:40.595Z,2.60
2019-03-25T16:00:16.381Z,2.50
2019-03-25T16:02:45.646Z,2.57
2019-03-25T16:05:15.783Z,3.03
2019-03-25T16:07:45.057Z,3.07
2019-03-25T16:10:16.278Z,3.20
2019-03-25T16:12:46.706Z,3.27
2019-03-25T16:15:37.208Z,3.13
2019-03-25T16:18:07.535Z,3.23
2019-03-25T16:20:37.070Z,2.07
2019-03-25T16:23:06.340Z,3.00
2019-03-25T16:25:35.625Z,2.63
2019-03-25T16:28:04.910Z,2.90
2019-03-25T16:30:34.210Z,2.33
2019-03-25T16:33:03.473Z,2.37
2019-03-25T16:35:32.805Z,2.27
2019-03-25T16:38:02.088Z,2.57
2019-03-25T16:40:31.356Z,2.17
2019-03-25T16:43:00.637Z,3.97
2019-03-25T16:45:29.904Z,28.80
2019-03-25T16:47:59.193Z,21.17
2019-03-25T16:50:28.519Z,17.57
2019-03-25T16:52:57.827Z,3.57
2019-03-25T16:55:27.089Z,3.20
2019-03-25T16:57:57.902Z,4.07
2019-03-25T17:00:27.853Z,4.93
2019-03-25T17:02:57.238Z,5.83
2019-03-25T17:05:26.501Z,5.53
2019-03-25T17:07:56.308Z,3.73
2019-03-25T17:10:25.684Z,3.77
2019-03-25T17:12:54.991Z,3.30
2019-03-25T17:15:25.132Z,3.37
2019-03-25T17:17:54.413Z,3.70
2019-03-25T17:20:23.768Z,3.10
2019-03-25T17:22:53.041Z,3.87
2019-03-25T17:25:22.327Z,3.60
2019-03-25T17:27:51.597Z,3.00
2019-03-25T17:30:21.103Z,3.30
2019-03-25T17:32:50.392Z,3.57
2019-03-25T17:35:19.702Z,2.20
2019-03-25T17:37:48.977Z,2.30
2019-03-25T17:40:18.419Z,2.63
2019-03-25T17:42:47.782Z,2.60
2019-03-25T17:45:17.486Z,2.00
2019-03-25T17:47:46.771Z,1.73
2019-03-25T17:50:16.209Z,1.90
2019-03-25T17:52:45.484Z,1.73
2019-03-25T17:55:14.894Z,1.83
2019-03-25T17:57:44.164Z,1.40
2019-03-25T18:00:14.035Z,1.73
2019-03-25T18:02:43.322Z,1.60
2019-03-25T18:05:12.595Z,2.00
2019-03-25T18:07:41.878Z,1.57
2019-03-25T18:10:11.224Z,1.87
2019-03-25T18:12:40.499Z,1.97
2019-03-25T18:15:13.337Z,1.70
2019-03-25T18:17:42.612Z,1.80
2019-03-25T18:20:18.620Z,1.50
2019-03-25T18:22:43.167Z,2.00
2019-03-25T18:25:12.439Z,2.57
2019-03-25T18:27:41.716Z,1.90
2019-03-25T18:30:11.430Z,1.70
2019-03-25T18:32:40.697Z,1.93
2019-03-25T18:35:13.062Z,1.60
2019-03-25T18:37:42.320Z,2.07
2019-03-25T18:40:11.656Z,1.70
2019-03-25T18:42:40.935Z,1.40
2019-03-25T18:45:10.340Z,1.73
2019-03-25T18:47:39.612Z,2.00
2019-03-25T18:50:08.894Z,1.80
2019-03-25T18:52:38.159Z,1.93
2019-03-25T18:55:07.518Z,1.80
2019-03-25T18:57:36.789Z,1.97
2019-03-25T19:00:08.794Z,2.43
2019-03-25T19:02:38.087Z,2.67
2019-03-25T19:05:07.853Z,3.43
2019-03-25T19:07:38.233Z,3.27
2019-03-25T19:10:14.453Z,2.83
2019-03-25T19:12:43.244Z,2.60
2019-03-25T19:15:12.590Z,3.20
2019-03-25T19:17:41.880Z,4.13
2019-03-25T19:20:11.249Z,2.30
2019-03-25T19:22:40.517Z,2.03
2019-03-25T19:25:10.772Z,2.47
2019-03-25T19:27:40.053Z,8.97
2019-03-25T19:30:10.871Z,4.70
2019-03-25T19:32:40.248Z,10.97
2019-03-25T19:35:10.333Z,4.20
2019-03-25T19:37:39.600Z,4.63
2019-03-25T19:40:10.499Z,3.07
2019-03-25T19:42:39.757Z,3.07
2019-03-25T19:45:09.405Z,2.83
2019-03-25T19:47:38.676Z,2.50
2019-03-25T19:50:09.346Z,2.77
2019-03-25T19:52:38.716Z,2.63
2019-03-25T19:55:08.139Z,2.23
2019-03-25T19:57:37.636Z,2.17
2019-03-25T20:00:09.091Z,2.07
2019-03-25T20:02:38.355Z,2.27
2019-03-25T20:05:08.584Z,2.30
2019-03-25T20:07:38.017Z,2.73
2019-03-25T20:10:10.359Z,2.53
2019-03-25T20:12:39.678Z,2.97
2019-03-25T20:15:09.191Z,2.70
2019-03-25T20:17:38.460Z,3.40
2019-03-25T20:20:07.980Z,2.83
2019-03-25T20:22:37.263Z,3.03
2019-03-25T20:25:07.784Z,2.83
2019-03-25T20:27:37.070Z,3.70
2019-03-25T20:30:12.640Z,2.80
2019-03-25T20:32:42.053Z,3.10
2019-03-25T20:35:11.423Z,2.93
2019-03-25T20:37:40.764Z,2.87
2019-03-25T20:40:10.581Z,3.03
2019-03-25T20:42:39.869Z,3.43
2019-03-25T20:45:10.959Z,4.50
2019-03-25T20:47:40.231Z,3.57
2019-03-25T20:50:09.841Z,3.20
2019-03-25T20:52:39.123Z,2.73
2019-03-25T20:55:08.819Z,3.77
2019-03-25T20:57:40.520Z,4.83
2019-03-25T21:00:11.311Z,3.90
2019-03-25T21:02:45.300Z,3.93
2019-03-25T21:05:12.620Z,4.00
2019-03-25T21:07:42.044Z,3.20
2019-03-25T21:10:11.665Z,4.03
2019-03-25T21:12:40.971Z,4.10
2019-03-25T21:15:10.685Z,3.70
2019-03-25T21:17:39.976Z,4.13
2019-03-25T21:20:09.545Z,4.50
2019-03-25T21:22:38.852Z,4.00
2019-03-25T21:25:08.407Z,3.87
2019-03-25T21:27:37.822Z,4.50
2019-03-25T21:30:08.367Z,4.10
2019-03-25T21:32:37.680Z,3.80
2019-03-25T21:35:07.235Z,4.47
2019-03-25T21:37:36.607Z,2.90
2019-03-25T21:40:08.067Z,3.87
2019-03-25T21:42:37.390Z,4.43
2019-03-25T21:45:08.925Z,3.90
2019-03-25T21:47:38.221Z,4.97
2019-03-25T21:50:07.812Z,5.30
2019-03-25T21:52:37.061Z,4.20
2019-03-25T21:55:07.071Z,4.30
2019-03-25T21:57:36.398Z,3.20
2019-03-25T22:00:06.966Z,4.30
2019-03-25T22:02:36.349Z,4.57
2019-03-25T22:05:07.166Z,3.70
2019-03-25T22:07:36.512Z,3.90
2019-03-25T22:10:07.026Z,3.63
2019-03-25T22:12:36.296Z,3.93
2019-03-25T22:15:11.629Z,3.73
2019-03-25T22:17:40.907Z,4.03
2019-03-25T22:20:10.822Z,3.90
2019-03-25T22:22:40.097Z,4.03
2019-03-25T22:25:10.108Z,3.37
2019-03-25T22:27:39.382Z,3.83
2019-03-25T22:30:08.992Z,3.93
2019-03-25T22:32:38.313Z,4.60
2019-03-25T22:35:08.923Z,3.67
2019-03-25T22:37:38.202Z,3.13
2019-03-25T22:40:08.215Z,4.40
2019-03-25T22:42:37.491Z,3.27
2019-03-25T22:45:06.929Z,4.47
2019-03-25T22:47:36.569Z,3.43
2019-03-25T22:50:07.740Z,4.97
2019-03-25T22:52:37.014Z,4.87
2019-03-25T22:55:07.321Z,4.40
2019-03-25T22:57:36.589Z,4.43
2019-03-25T23:00:09.436Z,5.53
2019-03-25T23:02:40.026Z,4.40
2019-03-25T23:05:09.408Z,5.10
2019-03-25T23:07:38.690Z,6.27
2019-03-25T23:10:08.131Z,6.57
2019-03-25T23:12:37.392Z,5.83
2019-03-25T23:15:06.808Z,6.13
2019-03-25T23:17:36.066Z,5.60
2019-03-25T23:20:06.274Z,4.73
2019-03-25T23:22:35.542Z,5.47
2019-03-25T23:25:06.372Z,6.90
2019-03-25T23:27:35.639Z,6.97
2019-03-25T23:30:06.250Z,7.13
2019-03-25T23:32:35.581Z,7.03
2019-03-25T23:35:06.096Z,6.43
2019-03-25T23:37:35.374Z,7.57
2019-03-25T23:40:07.639Z,6.83
2019-03-25T23:42:36.912Z,6.30
2019-03-25T23:45:07.721Z,5.90
2019-03-25T23:47:36.983Z,5.67
2019-03-25T23:50:06.698Z,6.53
2019-03-25T23:52:35.966Z,6.33
2019-03-25T23:55:06.582Z,6.43
2019-03-25T23:57:35.848Z,6.77
